Terminal Aerodrome Forecast
Issued by NWS

Home | Current Version | Previous Version | Text Only | Print | Product List | Glossary On
Versions: 1 2 3 4 5 6 7 8 9 10 11 12
000
FTAK31 PAJN 160500
TAFAWG
TAF
PAWG 160540Z 1606/1706 15003KT P6SM VCSH FEW045 BKN100
     FM161400 11006KT P6SM BKN050 OVC080
     FM161800 10006KT P6SM SCT050 OVC080
     FM170000 10009KT P6SM BKN040 BKN070
      AMD LTD TO CLD VIS AND WIND 1606/1615=

USA.gov is the U.S. government's official web portal to all federal, state and local government web resources and services.